Time;durP1;ratioP1;P1;durP2;ratioP2;P2;SDS_P1;SDS_P2;PMS_P1;PMS_P2;Temp;Humidity;BMP_temperature;BMP_pressure;BME280_temperature;BME280_humidity;BME280_pressure;Samples;Min_cycle;Max_cycle;Signal;HPM_P1;HPM_P2
2023/01/12 00:05:08;;;;;;;41.40;25.60;;;;;;;6.17;64.14;99069.70;234443;1195;139568;-66
2023/01/12 00:11:20;;;;;;;40.10;25.00;;;;;;;6.21;64.32;99078.20;234485;1193;139342;-69
2023/01/12 00:17:57;;;;;;;;;;;;;;;;;;;;;
2023/01/12 00:30:17;;;;;;;41.70;26.50;;;;;;;6.13;64.72;99103.56;234512;1195;138567;-67
2023/01/12 00:36:23;;;;;;;44.20;25.50;;;;;;;6.09;64.43;99106.02;234386;1196;138532;-68
2023/01/12 00:56:13;;;;;;;41.10;26.00;;;;;;;6.36;64.47;99120.33;233108;1209;636404;-68
2023/01/12 01:01:29;;;;;;;42.60;26.40;;;;;;;6.32;64.72;99118.40;234351;1199;139809;-66
2023/01/12 01:07:37;;;;;;;44.90;27.90;;;;;;;6.31;64.73;99118.44;234665;1196;139284;-66
2023/01/12 01:13:40;;;;;;;;;;;;;;;;;;;;;
2023/01/12 01:19:55;;;;;;;;;;;;;;;;;;;;;
2023/01/12 01:26:04;;;;;;;48.60;28.50;;;;;;;6.19;65.16;99125.30;235017;1197;138868;-69
2023/01/12 01:32:28;;;;;;;42.30;26.60;;;;;;;6.18;65.11;99129.20;235070;1193;139179;-70
2023/01/12 01:38:36;;;;;;;41.40;26.40;;;;;;;6.15;65.47;99130.41;235035;1193;139284;-66
2023/01/12 01:45:10;;;;;;;40.50;26.50;;;;;;;6.17;65.62;99122.59;235082;1193;138831;-69
2023/01/12 01:57:27;;;;;;;;;;;;;;;;;;;;;
2023/01/12 02:03:42;;;;;;;;;;;;;;;;;;;;;
2023/01/12 02:10:04;;;;;;;39.60;24.60;;;;;;;6.74;65.37;99106.84;234972;1193;139998;-72
2023/01/12 02:22:33;;;;;;;;;;;;;;;;;;;;;
2023/01/12 02:28:41;;;;;;;42.90;25.40;;;;;;;6.95;65.22;99117.02;234912;1193;139577;-72
2023/01/12 02:35:01;;;;;;;40.80;25.00;;;;;;;6.88;65.40;99116.27;235027;1193;139306;-68
2023/01/12 02:41:15;;;;;;;39.30;24.60;;;;;;;6.82;65.70;99142.95;234959;1193;138488;-70
2023/01/12 02:46:50;;;;;;;;;;;;;;;;;;;;;
2023/01/12 02:56:49;;;;;;;38.80;24.60;;;;;;;6.79;66.22;99138.52;231911;1211;635201;-67
2023/01/12 03:02:36;;;;;;;38.80;23.90;;;;;;;6.82;66.27;99139.98;235044;1192;138570;-67
2023/01/12 03:14:51;;;;;;;44.10;25.80;;;;;;;6.83;66.41;99147.89;234811;1193;138443;-68
2023/01/12 03:20:34;;;;;;;37.80;24.20;;;;;;;6.94;66.49;99143.31;234824;1193;139633;-68
2023/01/12 03:26:45;;;;;;;42.30;26.70;;;;;;;7.08;66.16;99132.79;234791;1193;139320;-68
2023/01/12 03:32:23;;;;;;;44.70;27.10;;;;;;;7.18;65.93;99130.58;234833;1193;138858;-67
2023/01/12 03:38:25;;;;;;;48.70;29.30;;;;;;;7.16;65.93;99141.95;234834;1193;138496;-69
2023/01/12 03:44:33;;;;;;;70.20;44.30;;;;;;;7.18;66.17;99149.10;234693;1194;139698;-70
2023/01/12 03:56:36;;;;;;;44.50;27.80;;;;;;;7.06;66.44;99151.06;234442;1195;139413;-70
2023/01/12 04:03:06;;;;;;;38.30;24.90;;;;;;;6.96;66.47;99153.83;234612;1196;138828;-68
2023/01/12 04:09:24;;;;;;;38.90;23.30;;;;;;;6.93;66.72;99163.13;234572;1195;138705;-68
2023/01/12 04:15:30;;;;;;;40.20;24.80;;;;;;;6.96;66.74;99165.61;234646;1194;139256;-67
2023/01/12 04:27:24;;;;;;;34.40;20.90;;;;;;;7.01;66.96;99162.07;234626;1197;139171;-71
2023/01/12 04:57:11;;;;;;;32.30;19.90;;;;;;;7.41;66.47;99157.23;232109;1213;635826;-71
2023/01/12 05:02:34;;;;;;;25.40;16.80;;;;;;;7.32;66.22;99166.94;233855;1200;138484;-69
2023/01/12 05:14:51;;;;;;;24.40;15.80;;;;;;;7.36;66.09;99161.33;233910;1200;139222;-71
2023/01/12 05:27:04;;;;;;;;;;;;;;;;;;;;;
2023/01/12 05:33:21;;;;;;;28.90;18.90;;;;;;;7.27;66.40;99165.27;234148;1202;138886;-67
2023/01/12 05:45:48;;;;;;;;;;;;;;;;;;;;;
2023/01/12 05:51:39;;;;;;;;;;;;;;;;;;;;;
2023/01/12 05:57:54;;;;;;;29.40;18.30;;;;;;;7.26;66.94;99164.25;234172;1202;139583;-69
2023/01/12 06:04:01;;;;;;;;;;;;;;;;;;;;;
2023/01/12 06:09:46;;;;;;;32.10;19.60;;;;;;;7.29;67.12;99171.70;234095;1202;139611;-65
2023/01/12 06:21:58;;;;;;;;;;;;;;;;;;;;;
2023/01/12 06:27:20;;;;;;;24.20;15.40;;;;;;;7.28;67.77;99182.50;234691;1196;140306;-66
2023/01/12 06:40:02;;;;;;;25.60;16.60;;;;;;;7.42;67.76;99204.65;234357;1195;139924;-68
2023/01/12 06:46:45;;;;;;;32.90;19.30;;;;;;;7.46;67.77;99213.95;234648;1198;140712;-68
2023/01/12 06:52:19;;;;;;;;;;;;;;;;;;;;;
2023/01/12 06:58:28;;;;;;;33.80;20.00;;;;;;;7.49;67.48;99234.69;234694;1195;139661;-70
2023/01/12 07:04:53;;;;;;;30.90;18.50;;;;;;;7.45;67.45;99241.40;234487;1196;138998;-68
2023/01/12 07:11:02;;;;;;;;;;;;;;;;;;;;;
2023/01/12 07:17:11;;;;;;;;;;;;;;;;;;;;;
2023/01/12 07:23:02;;;;;;;30.00;17.10;;;;;;;7.43;67.65;99240.42;234533;1199;138893;-66
2023/01/12 07:28:55;;;;;;;25.80;16.50;;;;;;;7.46;67.57;99252.30;234671;1199;139759;-69
2023/01/12 07:34:29;;;;;;;26.30;16.70;;;;;;;7.47;67.58;99257.19;234650;1196;138985;-70
2023/01/12 07:40:11;;;;;;;;;;;;;;;;;;;;;
2023/01/12 07:45:59;;;;;;;24.80;15.90;;;;;;;7.46;67.75;99264.63;234559;1195;138982;-70
2023/01/12 07:55:55;;;;;;;;;;;;;;;;;;;;;
2023/01/12 08:02:01;;;;;;;25.00;15.40;;;;;;;7.81;67.36;99254.70;233969;1199;140111;-70
2023/01/12 08:07:50;;;;;;;24.10;13.60;;;;;;;7.97;66.97;99259.27;234449;1195;139149;-66
2023/01/12 08:13:54;;;;;;;;;;;;;;;;;;;;;
2023/01/12 08:20:19;;;;;;;18.90;11.20;;;;;;;8.17;66.40;99270.11;234547;1195;139309;-70
2023/01/12 08:26:16;;;;;;;16.90;11.00;;;;;;;8.17;66.39;99269.77;234433;1196;138693;-66
2023/01/12 08:32:51;;;;;;;14.90;10.00;;;;;;;8.21;66.29;99260.74;234537;1196;138817;-64
2023/01/12 08:38:20;;;;;;;21.40;11.40;;;;;;;8.28;66.17;99271.70;234431;1193;140156;-69
2023/01/12 08:44:45;;;;;;;20.20;11.20;;;;;;;8.28;66.09;99275.92;234488;1196;140024;-66
2023/01/12 10:05:59;;;;;;;14.70;9.90;;;;;;;9.32;63.72;99211.02;230589;1212;636155;-71
2023/01/12 10:11:58;;;;;;;;;;;;;;;;;;;;;
2023/01/12 10:18:21;;;;;;;15.10;10.00;;;;;;;9.60;62.54;99201.32;232770;1192;138619;-68
2023/01/12 10:23:55;;;;;;;17.60;9.60;;;;;;;9.74;62.48;99191.35;232495;1197;139054;-69
2023/01/12 10:29:01;;;;;;;18.40;9.50;;;;;;;9.88;62.26;99194.08;232711;1196;138491;-68
2023/01/12 10:34:13;;;;;;;14.80;8.70;;;;;;;10.02;62.00;99187.81;232365;1196;139061;-72
2023/01/12 10:39:43;;;;;;;17.90;7.80;;;;;;;10.22;61.85;99182.77;232477;1197;141237;-71
2023/01/12 10:45:34;;;;;;;;;;;;;;;;;;;;;
2023/01/12 10:56:40;;;;;;;;;;;;;;;;;;;;;
2023/01/12 11:02:25;;;;;;;5.80;2.90;;;;;;;10.78;57.37;99164.73;233916;1199;141408;-68
2023/01/12 11:07:28;;;;;;;5.70;2.70;;;;;;;10.65;56.16;99151.66;234048;1200;139002;-69
2023/01/12 11:13:36;;;;;;;10.90;3.30;;;;;;;10.54;56.81;99153.39;234048;1199;139056;-69
2023/01/12 11:19:08;;;;;;;8.30;2.90;;;;;;;10.54;56.46;99145.21;234108;1199;138961;-68
2023/01/12 11:24:24;;;;;;;6.90;2.80;;;;;;;10.58;55.82;99132.20;234051;1198;138795;-69
2023/01/12 11:30:24;;;;;;;7.20;2.90;;;;;;;10.63;55.82;99114.15;234415;1195;139042;-65
2023/01/12 11:36:28;;;;;;;8.90;2.80;;;;;;;10.63;55.02;99115.26;234448;1194;138632;-69
2023/01/12 11:55:13;;;;;;;6.00;2.20;;;;;;;10.67;52.91;99113.91;232540;1210;657837;-69
2023/01/12 12:01:42;;;;;;;7.40;1.90;;;;;;;10.60;52.76;99106.36;233750;1198;139196;-69
2023/01/12 12:07:18;;;;;;;7.70;1.80;;;;;;;10.54;51.70;99105.16;234274;1198;138562;-64
2023/01/12 12:14:18;;;;;;;4.30;1.80;;;;;;;10.46;51.72;99103.66;234664;1194;139022;-71
2023/01/12 12:20:44;;;;;;;8.50;1.90;;;;;;;10.39;51.66;99096.98;234441;1193;138850;-73
2023/01/12 12:26:48;;;;;;;7.20;3.00;;;;;;;10.35;51.68;99097.79;234435;1193;138767;-72
2023/01/12 12:32:36;;;;;;;7.70;2.20;;;;;;;10.32;52.12;99088.94;234525;1193;140011;-70
2023/01/12 12:39:15;;;;;;;5.60;2.00;;;;;;;10.38;52.34;99087.68;235041;1191;138838;-68
2023/01/12 12:51:27;;;;;;;5.40;2.00;;;;;;;10.71;51.92;99076.80;234454;1192;139098;-68
2023/01/12 12:57:23;;;;;;;;;;;;;;;;;;;;;
2023/01/12 13:03:40;;;;;;;7.80;2.10;;;;;;;11.08;50.84;99071.41;234816;1193;139124;-74
2023/01/12 13:09:50;;;;;;;7.60;2.30;;;;;;;11.16;50.84;99072.86;234879;1193;139506;-69
2023/01/12 13:15:57;;;;;;;;;;;;;;;11.20;50.31;99073.90;234859;1193;140361;-69
2023/01/12 13:22:01;;;;;;;6.80;2.40;;;;;;;11.17;50.06;99069.63;234939;1193;126674;-73
2023/01/12 13:34:34;;;;;;;6.70;2.50;;;;;;;11.06;49.79;99065.69;235006;1192;139235;-72
2023/01/12 13:40:45;;;;;;;;;;;;;;;;;;;;;
2023/01/12 13:47:23;;;;;;;9.60;2.60;;;;;;;11.06;50.33;99065.33;235054;1193;138850;-69
2023/01/12 13:53:47;;;;;;;7.00;2.60;;;;;;;11.10;50.13;99063.48;234934;1192;138833;-68
2023/01/12 13:59:33;;;;;;;4.90;2.20;;;;;;;11.11;49.87;99062.88;235185;1193;138787;-69
2023/01/12 14:05:09;;;;;;;8.00;2.50;;;;;;;11.05;49.78;99060.81;235238;1193;138954;-68
2023/01/12 14:11:38;;;;;;;10.60;2.60;;;;;;;10.98;49.95;99057.87;235095;1196;139542;-67
2023/01/12 14:23:59;;;;;;;7.30;2.10;;;;;;;10.86;49.43;99043.88;235332;1192;139435;-68
2023/01/12 14:29:29;;;;;;;4.80;1.90;;;;;;;10.78;49.55;99033.05;234728;1193;139098;-66
2023/01/12 14:35:44;;;;;;;8.60;2.20;;;;;;;10.69;49.69;99039.66;235150;1192;138686;-66
2023/01/12 14:47:51;;;;;;;8.00;2.30;;;;;;;10.51;49.78;99027.83;235086;1192;138839;-65
2023/01/12 14:53:05;;;;;;;7.70;2.30;;;;;;;10.39;49.70;99015.91;235268;1193;140216;-69
2023/01/12 14:59:17;;;;;;;5.40;2.20;;;;;;;10.29;50.02;99020.11;235278;1193;139184;-67
2023/01/12 15:04:55;;;;;;;8.30;2.10;;;;;;;10.24;49.97;99023.95;234957;1193;140289;-66
2023/01/12 15:11:20;;;;;;;6.40;2.50;;;;;;;10.15;50.02;99024.79;234983;1193;139575;-69
2023/01/12 15:28:23;;;;;;;5.60;1.80;;;;;;;9.93;49.77;99036.60;234909;1193;139907;-69
2023/01/12 15:34:54;;;;;;;5.60;2.20;;;;;;;9.83;50.17;99038.08;234682;1192;139966;-67
2023/01/12 15:40:30;;;;;;;;;;;;;;;;;;;;;
2023/01/12 15:46:14;;;;;;;11.40;3.00;;;;;;;9.68;50.62;99042.70;234801;1192;139107;-71
2023/01/12 15:51:50;;;;;;;10.60;3.50;;;;;;;9.58;51.12;99045.05;234716;1193;140459;-72
2023/01/12 15:57:08;;;;;;;;;;;;;;;;;;;;;
2023/01/12 16:02:51;;;;;;;;;;;;;;;;;;;;;
2023/01/12 16:09:14;;;;;;;8.80;3.80;;;;;;;9.31;52.28;99040.96;234959;1193;138909;-70
2023/01/12 16:14:34;;;;;;;;;;;;;;;;;;;;;
2023/01/12 16:20:01;;;;;;;13.00;4.50;;;;;;;9.21;52.44;99042.71;234708;1193;138950;-66
2023/01/12 16:25:18;;;;;;;12.30;4.70;;;;;;;9.14;52.66;99037.13;235162;1192;139443;-68
2023/01/12 16:31:25;;;;;;;14.20;5.00;;;;;;;9.03;52.62;99038.77;234852;1192;139001;-69
2023/01/12 16:37:03;;;;;;;11.90;5.00;;;;;;;8.89;52.87;99032.63;234653;1193;139452;-68
2023/01/12 16:43:23;;;;;;;12.60;5.50;;;;;;;8.80;53.03;99032.27;234681;1193;138957;-68
2023/01/12 16:55:33;;;;;;;;;;;;;;;;;;;;;
2023/01/12 17:01:25;;;;;;;;;;;;;;;;;;;;;
2023/01/12 17:06:37;;;;;;;16.10;5.90;;;;;;;8.66;53.18;99035.69;234914;1193;137853;-71
2023/01/12 17:12:10;;;;;;;;;;;;;;;;;;;;;
2023/01/12 17:17:44;;;;;;;19.40;6.60;;;;;;;8.60;53.28;99033.92;234804;1193;137861;-69
2023/01/12 17:23:52;;;;;;;18.30;7.10;;;;;;;8.56;53.14;99028.65;234825;1193;139020;-68
2023/01/12 17:29:03;;;;;;;13.70;6.30;;;;;;;8.49;53.03;99018.06;234660;1193;138604;-67
2023/01/12 17:34:15;;;;;;;37.30;23.20;;;;;;;8.43;53.39;99018.20;234866;1196;139622;-68
2023/01/12 17:39:59;;;;;;;;;;;;;;;;;;;;;
2023/01/12 17:45:51;;;;;;;;;;;;;;;;;;;;;
2023/01/12 17:56:17;;;;;;;106.10;69.60;;;;;;;8.31;53.71;99018.78;232724;1208;636516;-68
2023/01/12 18:02:42;;;;;;;22.40;10.00;;;;;;;8.37;54.04;99013.00;234147;1198;139469;-72
2023/01/12 18:08:42;;;;;;;17.60;7.40;;;;;;;8.34;53.46;99008.90;234085;1198;138637;-70
2023/01/12 18:15:24;;;;;;;13.40;6.40;;;;;;;8.20;53.57;98999.21;233932;1199;139417;-72
2023/01/12 18:35:09;;;;;;;15.90;5.70;;;;;;;8.01;53.85;98995.62;234060;1198;139168;-73
2023/01/12 18:53:52;;;;;;;15.90;6.90;;;;;;;8.11;53.79;98974.62;232932;1208;644541;-67
2023/01/12 18:59:18;;;;;;;;;;;;;;;;;;;;;
2023/01/12 19:12:19;;;;;;;29.50;16.90;;;;;;;7.98;54.98;98965.08;234612;1193;138590;-71
2023/01/12 19:18:27;;;;;;;;;;;;;;;;;;;;;
2023/01/12 19:30:22;;;;;;;21.50;7.80;;;;;;;7.46;55.94;98953.43;234879;1193;139532;-71
2023/01/12 19:36:12;;;;;;;24.60;7.80;;;;;;;7.30;56.27;98955.83;234789;1193;140385;-69
2023/01/12 19:47:44;;;;;;;;;;;;;;;;;;;;;
2023/01/12 19:53:59;;;;;;;30.10;9.60;;;;;;;7.21;57.56;98958.39;234549;1196;140223;-71
2023/01/12 20:00:15;;;;;;;24.30;8.60;;;;;;;6.98;57.63;98953.86;234483;1199;138814;-70
2023/01/12 20:06:35;;;;;;;28.80;8.70;;;;;;;6.85;58.29;98959.08;234442;1196;139401;-67
2023/01/12 20:12:03;;;;;;;158.90;102.80;;;;;;;6.78;59.02;98953.45;234615;1197;139112;-68
2023/01/12 20:18:13;;;;;;;27.00;13.00;;;;;;;6.77;59.40;98956.83;234508;1195;139323;-70
2023/01/12 20:24:18;;;;;;;22.10;8.40;;;;;;;6.64;59.09;98953.05;234534;1195;139574;-73
2023/01/12 20:30:13;;;;;;;23.50;8.80;;;;;;;6.51;59.20;98959.47;234547;1196;138758;-69
2023/01/12 20:36:01;;;;;;;23.70;9.10;;;;;;;6.50;59.61;98955.48;234488;1195;139137;-70
2023/01/12 20:42:30;;;;;;;;;;;;;;;;;;;;;
2023/01/12 20:54:41;;;;;;;;;;;;;;;;;;;;;
2023/01/12 21:00:34;;;;;;;;;;;;;;;;;;;;;
2023/01/12 21:06:32;;;;;;;;;;;;;;;;;;;;;
2023/01/12 21:12:46;;;;;;;;;;;;;;;;;;;;;
2023/01/12 21:19:11;;;;;;;22.00;10.00;;;;;;;6.83;60.73;98935.52;235066;1193;139661;-71
2023/01/12 21:25:24;;;;;;;;;;;;;;;;;;;;;
2023/01/12 21:37:37;;;;;;;16.40;7.80;;;;;;;7.22;60.42;98936.48;234914;1193;138940;-67
2023/01/12 21:43:43;;;;;;;13.00;6.20;;;;;;;7.43;60.01;98936.30;234987;1193;138613;-70
2023/01/12 21:50:01;;;;;;;16.50;8.40;;;;;;;7.56;59.87;98933.31;235074;1193;138921;-70
2023/01/12 21:56:20;;;;;;;26.20;10.00;;;;;;;7.62;59.88;98932.52;234869;1192;138699;-68
2023/01/12 22:02:50;;;;;;;22.30;10.00;;;;;;;7.56;60.06;98929.10;234875;1193;139517;-68
2023/01/12 23:26:24;;;;;;;21.30;11.30;;;;;;;5.99;62.68;98881.91;230910;1209;635873;-69
2023/01/12 23:32:51;;;;;;;23.60;11.30;;;;;;;5.94;62.94;98885.15;231936;1202;138865;-70
2023/01/12 23:39:09;;;;;;;26.40;11.80;;;;;;;5.90;63.32;98884.37;232820;1193;141038;-72
2023/01/12 23:45:39;;;;;;;;;;;;;;;;;;;;;
2023/01/12 23:58:44;;;;;;;22.80;7.90;;;;;;;5.94;63.75;98877.18;232118;1192;140469;-70
